sensor_id;sensor_type;location;lat;lon;timestamp;temperature;humidity
939;DHT22;456;53.584;9.968;2022-08-11T00:00:39;18.00;52.10
939;DHT22;456;53.584;9.968;2022-08-11T00:03:11;18.00;52.10
939;DHT22;456;53.584;9.968;2022-08-11T00:05:51;18.00;52.10
939;DHT22;456;53.584;9.968;2022-08-11T00:08:25;18.00;52.10
939;DHT22;456;53.584;9.968;2022-08-11T00:11:04;18.00;52.20
939;DHT22;456;53.584;9.968;2022-08-11T00:13:42;18.00;52.20
939;DHT22;456;53.584;9.968;2022-08-11T00:16:23;18.00;52.10
939;DHT22;456;53.584;9.968;2022-08-11T00:18:52;18.00;52.20
939;DHT22;456;53.584;9.968;2022-08-11T00:21:23;18.00;52.80
939;DHT22;456;53.584;9.968;2022-08-11T00:23:57;18.00;52.20
939;DHT22;456;53.584;9.968;2022-08-11T00:26:25;18.00;52.20
939;DHT22;456;53.584;9.968;2022-08-11T00:28:52;18.00;52.10
939;DHT22;456;53.584;9.968;2022-08-11T00:31:25;18.00;52.20
939;DHT22;456;53.584;9.968;2022-08-11T00:33:53;18.00;52.10
939;DHT22;456;53.584;9.968;2022-08-11T00:36:25;18.00;52.20
939;DHT22;456;53.584;9.968;2022-08-11T00:38:52;18.00;52.10
939;DHT22;456;53.584;9.968;2022-08-11T00:41:30;18.00;52.20
939;DHT22;456;53.584;9.968;2022-08-11T00:47:34;18.00;52.10
939;DHT22;456;53.584;9.968;2022-08-11T00:53:32;18.00;52.10
939;DHT22;456;53.584;9.968;2022-08-11T01:07:23;18.00;52.20
939;DHT22;456;53.584;9.968;2022-08-11T01:29:23;18.00;52.10
939;DHT22;456;53.584;9.968;2022-08-11T01:38:00;18.00;52.10
939;DHT22;456;53.584;9.968;2022-08-11T01:46:34;18.00;52.10
939;DHT22;456;53.584;9.968;2022-08-11T01:54:52;18.00;52.10
939;DHT22;456;53.584;9.968;2022-08-11T01:57:36;18.00;52.20
939;DHT22;456;53.584;9.968;2022-08-11T02:00:13;18.00;52.20
939;DHT22;456;53.584;9.968;2022-08-11T02:02:57;18.00;52.20
939;DHT22;456;53.584;9.968;2022-08-11T02:08:20;18.00;52.10
939;DHT22;456;53.584;9.968;2022-08-11T02:22:04;18.00;52.20
939;DHT22;456;53.584;9.968;2022-08-11T02:25:03;18.00;52.90
939;DHT22;456;53.584;9.968;2022-08-11T02:27:42;18.00;52.20
939;DHT22;456;53.584;9.968;2022-08-11T02:30:13;18.00;52.20
939;DHT22;456;53.584;9.968;2022-08-11T02:33:19;18.00;52.20
939;DHT22;456;53.584;9.968;2022-08-11T02:38:42;18.00;52.20
939;DHT22;456;53.584;9.968;2022-08-11T02:41:23;18.00;52.20
939;DHT22;456;53.584;9.968;2022-08-11T02:50:32;18.00;52.20
939;DHT22;456;53.584;9.968;2022-08-11T02:53:12;18.00;52.30
939;DHT22;456;53.584;9.968;2022-08-11T02:55:57;18.00;52.20
939;DHT22;456;53.584;9.968;2022-08-11T02:58:28;18.00;52.20
939;DHT22;456;53.584;9.968;2022-08-11T03:01:18;18.00;52.20
939;DHT22;456;53.584;9.968;2022-08-11T03:04:07;18.00;52.20
939;DHT22;456;53.584;9.968;2022-08-11T03:06:48;18.00;52.20
939;DHT22;456;53.584;9.968;2022-08-11T03:09:26;18.00;52.20
939;DHT22;456;53.584;9.968;2022-08-11T03:12:23;18.00;52.20
939;DHT22;456;53.584;9.968;2022-08-11T03:15:23;18.00;52.20
939;DHT22;456;53.584;9.968;2022-08-11T03:21:40;18.00;52.20
939;DHT22;456;53.584;9.968;2022-08-11T03:29:26;18.00;52.20
939;DHT22;456;53.584;9.968;2022-08-11T03:32:04;18.00;52.10
939;DHT22;456;53.584;9.968;2022-08-11T03:34:33;18.00;52.20
939;DHT22;456;53.584;9.968;2022-08-11T03:42:56;18.00;52.20
939;DHT22;456;53.584;9.968;2022-08-11T03:45:27;18.00;52.20
939;DHT22;456;53.584;9.968;2022-08-11T03:54:09;18.00;52.20
939;DHT22;456;53.584;9.968;2022-08-11T03:57:13;18.00;52.10
939;DHT22;456;53.584;9.968;2022-08-11T03:59:55;18.00;52.20
939;DHT22;456;53.584;9.968;2022-08-11T04:08:05;18.00;52.20
939;DHT22;456;53.584;9.968;2022-08-11T04:11:04;18.00;52.20
939;DHT22;456;53.584;9.968;2022-08-11T04:16:14;18.00;52.20
939;DHT22;456;53.584;9.968;2022-08-11T04:27:28;18.00;52.20
939;DHT22;456;53.584;9.968;2022-08-11T04:36:20;18.00;52.20
939;DHT22;456;53.584;9.968;2022-08-11T04:39:38;18.00;52.20
939;DHT22;456;53.584;9.968;2022-08-11T04:51:47;18.00;52.20
939;DHT22;456;53.584;9.968;2022-08-11T04:58:16;18.00;52.20
939;DHT22;456;53.584;9.968;2022-08-11T05:10:05;18.00;52.20
939;DHT22;456;53.584;9.968;2022-08-11T05:12:40;18.00;52.20
939;DHT22;456;53.584;9.968;2022-08-11T05:15:33;18.00;52.20
939;DHT22;456;53.584;9.968;2022-08-11T05:18:38;18.00;52.20
939;DHT22;456;53.584;9.968;2022-08-11T05:21:28;18.00;52.30
939;DHT22;456;53.584;9.968;2022-08-11T05:24:37;18.00;52.20
939;DHT22;456;53.584;9.968;2022-08-11T05:27:35;18.00;52.20
939;DHT22;456;53.584;9.968;2022-08-11T05:30:27;18.00;52.20
939;DHT22;456;53.584;9.968;2022-08-11T05:33:22;18.00;52.20
939;DHT22;456;53.584;9.968;2022-08-11T05:36:14;18.00;52.20
939;DHT22;456;53.584;9.968;2022-08-11T05:38:50;18.00;52.20
939;DHT22;456;53.584;9.968;2022-08-11T05:41:37;18.00;52.20
939;DHT22;456;53.584;9.968;2022-08-11T05:44:22;18.00;52.20
939;DHT22;456;53.584;9.968;2022-08-11T05:47:06;18.00;52.20
939;DHT22;456;53.584;9.968;2022-08-11T05:49:52;18.00;52.20
939;DHT22;456;53.584;9.968;2022-08-11T05:52:36;18.00;52.20
939;DHT22;456;53.584;9.968;2022-08-11T05:55:22;18.00;52.30
939;DHT22;456;53.584;9.968;2022-08-11T05:58:08;18.00;52.20
939;DHT22;456;53.584;9.968;2022-08-11T06:00:44;18.00;52.20
939;DHT22;456;53.584;9.968;2022-08-11T06:03:11;18.00;52.20
939;DHT22;456;53.584;9.968;2022-08-11T06:05:44;18.20;50.40
939;DHT22;456;53.584;9.968;2022-08-11T06:08:12;18.40;47.60
939;DHT22;456;53.584;9.968;2022-08-11T06:10:42;18.50;45.80
939;DHT22;456;53.584;9.968;2022-08-11T06:13:09;18.60;44.40
939;DHT22;456;53.584;9.968;2022-08-11T06:15:46;18.70;43.50
939;DHT22;456;53.584;9.968;2022-08-11T06:18:13;18.80;42.80
939;DHT22;456;53.584;9.968;2022-08-11T06:20:53;18.80;42.40
939;DHT22;456;53.584;9.968;2022-08-11T06:23:24;18.90;42.00
939;DHT22;456;53.584;9.968;2022-08-11T06:25:55;18.90;42.10
939;DHT22;456;53.584;9.968;2022-08-11T06:28:35;19.00;41.50
939;DHT22;456;53.584;9.968;2022-08-11T06:31:10;19.00;41.30
939;DHT22;456;53.584;9.968;2022-08-11T06:36:51;19.10;40.70
939;DHT22;456;53.584;9.968;2022-08-11T06:41:45;19.10;40.30
939;DHT22;456;53.584;9.968;2022-08-11T06:49:10;19.20;39.80
939;DHT22;456;53.584;9.968;2022-08-11T06:52:01;19.20;39.70
939;DHT22;456;53.584;9.968;2022-08-11T06:54:31;19.20;39.50
939;DHT22;456;53.584;9.968;2022-08-11T06:56:58;19.20;39.30
939;DHT22;456;53.584;9.968;2022-08-11T06:59:43;19.20;39.20
939;DHT22;456;53.584;9.968;2022-08-11T07:02:44;19.20;39.00
939;DHT22;456;53.584;9.968;2022-08-11T07:05:22;19.30;38.90
939;DHT22;456;53.584;9.968;2022-08-11T07:08:40;19.20;38.70
939;DHT22;456;53.584;9.968;2022-08-11T07:14:05;19.30;39.20
939;DHT22;456;53.584;9.968;2022-08-11T07:16:50;19.30;38.20
939;DHT22;456;53.584;9.968;2022-08-11T07:19:23;19.30;38.00
939;DHT22;456;53.584;9.968;2022-08-11T07:22:09;19.30;37.90
939;DHT22;456;53.584;9.968;2022-08-11T07:25:00;19.30;37.80
939;DHT22;456;53.584;9.968;2022-08-11T07:27:51;19.30;37.80
939;DHT22;456;53.584;9.968;2022-08-11T07:30:40;19.30;37.80
939;DHT22;456;53.584;9.968;2022-08-11T07:33:07;19.30;37.90
939;DHT22;456;53.584;9.968;2022-08-11T07:35:42;19.30;37.90
939;DHT22;456;53.584;9.968;2022-08-11T07:38:19;19.30;37.60
939;DHT22;456;53.584;9.968;2022-08-11T07:40:46;19.40;37.60
939;DHT22;456;53.584;9.968;2022-08-11T07:43:13;19.40;37.50
939;DHT22;456;53.584;9.968;2022-08-11T07:45:42;19.40;37.30
939;DHT22;456;53.584;9.968;2022-08-11T07:48:28;19.40;37.20
939;DHT22;456;53.584;9.968;2022-08-11T07:51:18;19.40;37.00
939;DHT22;456;53.584;9.968;2022-08-11T07:54:04;19.40;37.00
939;DHT22;456;53.584;9.968;2022-08-11T07:56:33;19.40;36.90
939;DHT22;456;53.584;9.968;2022-08-11T07:58:59;19.40;36.80
939;DHT22;456;53.584;9.968;2022-08-11T08:01:43;19.40;36.80
939;DHT22;456;53.584;9.968;2022-08-11T08:04:30;19.40;36.70
939;DHT22;456;53.584;9.968;2022-08-11T08:07:19;19.40;36.60
939;DHT22;456;53.584;9.968;2022-08-11T08:10:06;19.40;36.50
939;DHT22;456;53.584;9.968;2022-08-11T08:12:53;19.40;36.40
939;DHT22;456;53.584;9.968;2022-08-11T08:15:38;19.40;36.40
939;DHT22;456;53.584;9.968;2022-08-11T08:18:24;19.40;36.30
939;DHT22;456;53.584;9.968;2022-08-11T08:20:50;19.40;36.10
939;DHT22;456;53.584;9.968;2022-08-11T08:23:21;19.40;36.00
939;DHT22;456;53.584;9.968;2022-08-11T08:26:02;19.40;36.00
939;DHT22;456;53.584;9.968;2022-08-11T08:28:29;19.40;35.90
939;DHT22;456;53.584;9.968;2022-08-11T08:30:55;19.50;35.90
939;DHT22;456;53.584;9.968;2022-08-11T08:33:27;19.40;35.80
939;DHT22;456;53.584;9.968;2022-08-11T08:35:59;19.50;35.70
939;DHT22;456;53.584;9.968;2022-08-11T08:38:49;19.50;35.70
939;DHT22;456;53.584;9.968;2022-08-11T08:41:21;19.40;35.50
939;DHT22;456;53.584;9.968;2022-08-11T08:43:49;19.40;35.50
939;DHT22;456;53.584;9.968;2022-08-11T08:46:21;19.50;35.50
939;DHT22;456;53.584;9.968;2022-08-11T08:48:49;19.40;35.40
939;DHT22;456;53.584;9.968;2022-08-11T08:51:15;19.50;35.40
939;DHT22;456;53.584;9.968;2022-08-11T08:54:03;19.50;35.30
939;DHT22;456;53.584;9.968;2022-08-11T08:56:30;19.50;35.20
939;DHT22;456;53.584;9.968;2022-08-11T08:59:00;19.50;35.10
939;DHT22;456;53.584;9.968;2022-08-11T09:01:36;19.50;35.10
939;DHT22;456;53.584;9.968;2022-08-11T09:04:06;19.50;35.10
939;DHT22;456;53.584;9.968;2022-08-11T09:06:34;19.50;35.00
939;DHT22;456;53.584;9.968;2022-08-11T09:09:04;19.50;34.90
939;DHT22;456;53.584;9.968;2022-08-11T09:11:32;19.50;34.90
939;DHT22;456;53.584;9.968;2022-08-11T09:14:24;19.50;34.80
939;DHT22;456;53.584;9.968;2022-08-11T09:17:12;19.50;34.80
939;DHT22;456;53.584;9.968;2022-08-11T09:19:38;19.50;34.80
939;DHT22;456;53.584;9.968;2022-08-11T09:22:04;19.50;34.70
939;DHT22;456;53.584;9.968;2022-08-11T09:24:49;19.50;34.60
939;DHT22;456;53.584;9.968;2022-08-11T09:27:34;19.50;34.60
939;DHT22;456;53.584;9.968;2022-08-11T09:30:04;19.50;34.50
939;DHT22;456;53.584;9.968;2022-08-11T09:32:32;19.50;34.40
939;DHT22;456;53.584;9.968;2022-08-11T09:34:58;19.60;34.50
939;DHT22;456;53.584;9.968;2022-08-11T09:37:27;19.60;34.60
939;DHT22;456;53.584;9.968;2022-08-11T09:40:13;19.50;34.30
939;DHT22;456;53.584;9.968;2022-08-11T09:43:06;19.60;34.20
939;DHT22;456;53.584;9.968;2022-08-11T09:45:54;19.50;34.10
939;DHT22;456;53.584;9.968;2022-08-11T09:48:25;19.50;34.00
939;DHT22;456;53.584;9.968;2022-08-11T09:50:58;19.50;34.00
939;DHT22;456;53.584;9.968;2022-08-11T09:53:26;19.60;33.90
939;DHT22;456;53.584;9.968;2022-08-11T09:55:52;19.60;33.80
939;DHT22;456;53.584;9.968;2022-08-11T09:58:18;19.60;33.70
939;DHT22;456;53.584;9.968;2022-08-11T10:00:47;19.50;33.60
939;DHT22;456;53.584;9.968;2022-08-11T10:03:21;19.50;34.10
939;DHT22;456;53.584;9.968;2022-08-11T10:05:50;19.40;37.00
939;DHT22;456;53.584;9.968;2022-08-11T10:08:38;19.30;38.30
939;DHT22;456;53.584;9.968;2022-08-11T10:11:09;19.20;40.10
939;DHT22;456;53.584;9.968;2022-08-11T10:13:41;19.20;41.10
939;DHT22;456;53.584;9.968;2022-08-11T10:16:34;19.10;42.20
939;DHT22;456;53.584;9.968;2022-08-11T10:19:03;19.10;42.30
939;DHT22;456;53.584;9.968;2022-08-11T10:21:39;19.10;43.00
939;DHT22;456;53.584;9.968;2022-08-11T10:24:06;19.00;43.70
939;DHT22;456;53.584;9.968;2022-08-11T10:26:53;19.00;43.60
939;DHT22;456;53.584;9.968;2022-08-11T10:29:38;19.00;43.90
939;DHT22;456;53.584;9.968;2022-08-11T10:32:25;19.00;43.30
939;DHT22;456;53.584;9.968;2022-08-11T10:35:10;19.00;44.00
939;DHT22;456;53.584;9.968;2022-08-11T10:37:38;19.00;43.90
939;DHT22;456;53.584;9.968;2022-08-11T10:40:06;19.00;43.80
939;DHT22;456;53.584;9.968;2022-08-11T10:42:33;19.00;43.30
939;DHT22;456;53.584;9.968;2022-08-11T10:45:18;18.90;43.80
939;DHT22;456;53.584;9.968;2022-08-11T10:48:05;18.90;43.80
939;DHT22;456;53.584;9.968;2022-08-11T10:50:31;18.90;43.80
939;DHT22;456;53.584;9.968;2022-08-11T10:53:17;18.90;44.10
939;DHT22;456;53.584;9.968;2022-08-11T10:56:03;18.90;43.80
939;DHT22;456;53.584;9.968;2022-08-11T10:58:48;18.90;44.00
939;DHT22;456;53.584;9.968;2022-08-11T11:01:29;18.90;44.00
939;DHT22;456;53.584;9.968;2022-08-11T11:04:07;18.90;43.80
939;DHT22;456;53.584;9.968;2022-08-11T11:09:32;18.90;44.10
939;DHT22;456;53.584;9.968;2022-08-11T11:12:15;18.90;44.30
939;DHT22;456;53.584;9.968;2022-08-11T11:15:02;18.90;44.20
939;DHT22;456;53.584;9.968;2022-08-11T11:17:52;18.90;44.30
939;DHT22;456;53.584;9.968;2022-08-11T11:20:42;18.90;44.40
939;DHT22;456;53.584;9.968;2022-08-11T11:23:20;18.90;44.40
939;DHT22;456;53.584;9.968;2022-08-11T11:37:36;18.80;44.80
939;DHT22;456;53.584;9.968;2022-08-11T11:40:17;18.80;44.80
939;DHT22;456;53.584;9.968;2022-08-11T11:42:48;18.80;44.80
939;DHT22;456;53.584;9.968;2022-08-11T11:45:16;18.80;44.90
939;DHT22;456;53.584;9.968;2022-08-11T11:47:43;18.90;45.00
939;DHT22;456;53.584;9.968;2022-08-11T11:50:10;18.80;45.00
939;DHT22;456;53.584;9.968;2022-08-11T11:52:37;18.80;44.90
939;DHT22;456;53.584;9.968;2022-08-11T11:55:04;18.90;45.00
939;DHT22;456;53.584;9.968;2022-08-11T11:57:32;18.90;45.10
939;DHT22;456;53.584;9.968;2022-08-11T12:00:17;18.90;45.10
939;DHT22;456;53.584;9.968;2022-08-11T12:03:07;18.80;44.80
939;DHT22;456;53.584;9.968;2022-08-11T12:05:35;18.70;45.10
939;DHT22;456;53.584;9.968;2022-08-11T12:08:02;18.60;45.40
939;DHT22;456;53.584;9.968;2022-08-11T12:11:01;18.50;45.60
939;DHT22;456;53.584;9.968;2022-08-11T12:13:48;18.40;45.70
939;DHT22;456;53.584;9.968;2022-08-11T12:16:17;18.40;46.00
939;DHT22;456;53.584;9.968;2022-08-11T12:18:46;18.40;46.10
939;DHT22;456;53.584;9.968;2022-08-11T12:21:14;18.40;46.10
939;DHT22;456;53.584;9.968;2022-08-11T12:23:41;18.40;46.10
939;DHT22;456;53.584;9.968;2022-08-11T12:26:27;18.40;46.10
939;DHT22;456;53.584;9.968;2022-08-11T12:29:12;18.40;46.10
939;DHT22;456;53.584;9.968;2022-08-11T12:31:39;18.30;46.00
939;DHT22;456;53.584;9.968;2022-08-11T12:34:11;18.40;46.10
939;DHT22;456;53.584;9.968;2022-08-11T12:36:42;18.40;46.10
939;DHT22;456;53.584;9.968;2022-08-11T12:39:11;18.30;46.00
939;DHT22;456;53.584;9.968;2022-08-11T12:41:39;18.30;46.20
939;DHT22;456;53.584;9.968;2022-08-11T12:44:27;18.40;46.50
939;DHT22;456;53.584;9.968;2022-08-11T12:47:15;18.40;46.50
939;DHT22;456;53.584;9.968;2022-08-11T12:49:47;18.30;46.40
939;DHT22;456;53.584;9.968;2022-08-11T12:52:36;18.30;46.50
939;DHT22;456;53.584;9.968;2022-08-11T12:55:12;18.30;46.50
939;DHT22;456;53.584;9.968;2022-08-11T12:57:59;18.30;46.60
939;DHT22;456;53.584;9.968;2022-08-11T13:00:45;18.30;46.70
939;DHT22;456;53.584;9.968;2022-08-11T13:03:31;18.30;46.70
939;DHT22;456;53.584;9.968;2022-08-11T13:06:18;18.30;46.90
939;DHT22;456;53.584;9.968;2022-08-11T13:08:45;18.30;46.90
939;DHT22;456;53.584;9.968;2022-08-11T13:11:11;18.30;46.80
939;DHT22;456;53.584;9.968;2022-08-11T13:13:56;18.30;46.90
939;DHT22;456;53.584;9.968;2022-08-11T13:16:32;18.30;47.00
939;DHT22;456;53.584;9.968;2022-08-11T13:19:22;18.30;47.00
939;DHT22;456;53.584;9.968;2022-08-11T13:21:49;18.30;47.00
939;DHT22;456;53.584;9.968;2022-08-11T13:24:15;18.30;47.00
939;DHT22;456;53.584;9.968;2022-08-11T13:26:43;18.30;47.10
939;DHT22;456;53.584;9.968;2022-08-11T13:29:10;18.30;47.10
939;DHT22;456;53.584;9.968;2022-08-11T13:31:36;18.30;47.10
939;DHT22;456;53.584;9.968;2022-08-11T13:34:02;18.30;47.20
939;DHT22;456;53.584;9.968;2022-08-11T13:36:28;18.30;47.20
939;DHT22;456;53.584;9.968;2022-08-11T13:38:55;18.30;47.40
939;DHT22;456;53.584;9.968;2022-08-11T13:41:24;18.30;47.40
939;DHT22;456;53.584;9.968;2022-08-11T13:44:10;18.30;47.50
939;DHT22;456;53.584;9.968;2022-08-11T13:46:37;18.30;47.50
939;DHT22;456;53.584;9.968;2022-08-11T13:49:05;18.30;47.40
939;DHT22;456;53.584;9.968;2022-08-11T13:51:35;18.30;47.50
939;DHT22;456;53.584;9.968;2022-08-11T13:54:10;18.30;47.50
939;DHT22;456;53.584;9.968;2022-08-11T13:56:41;18.30;48.30
939;DHT22;456;53.584;9.968;2022-08-11T13:59:08;18.30;47.60
939;DHT22;456;53.584;9.968;2022-08-11T14:01:40;18.30;47.60
939;DHT22;456;53.584;9.968;2022-08-11T14:04:11;18.30;47.70
939;DHT22;456;53.584;9.968;2022-08-11T14:06:42;18.20;47.70
939;DHT22;456;53.584;9.968;2022-08-11T14:09:10;18.30;47.80
939;DHT22;456;53.584;9.968;2022-08-11T14:11:39;18.30;47.80
939;DHT22;456;53.584;9.968;2022-08-11T14:14:26;18.20;47.80
939;DHT22;456;53.584;9.968;2022-08-11T14:16:56;18.20;47.80
939;DHT22;456;53.584;9.968;2022-08-11T14:19:24;18.20;47.90
939;DHT22;456;53.584;9.968;2022-08-11T14:21:51;18.20;47.90
939;DHT22;456;53.584;9.968;2022-08-11T14:24:37;18.30;48.00
939;DHT22;456;53.584;9.968;2022-08-11T14:27:09;18.30;48.10
939;DHT22;456;53.584;9.968;2022-08-11T14:29:37;18.30;48.10
939;DHT22;456;53.584;9.968;2022-08-11T14:32:05;18.20;48.10
939;DHT22;456;53.584;9.968;2022-08-11T14:34:33;18.20;48.10
939;DHT22;456;53.584;9.968;2022-08-11T14:37:01;18.20;48.10
939;DHT22;456;53.584;9.968;2022-08-11T14:39:30;18.20;48.10
939;DHT22;456;53.584;9.968;2022-08-11T14:42:03;18.20;48.10
939;DHT22;456;53.584;9.968;2022-08-11T14:45:00;18.20;48.10
939;DHT22;456;53.584;9.968;2022-08-11T14:47:50;18.20;48.20
939;DHT22;456;53.584;9.968;2022-08-11T14:50:20;18.20;48.20
939;DHT22;456;53.584;9.968;2022-08-11T14:52:51;18.20;48.20
939;DHT22;456;53.584;9.968;2022-08-11T14:55:19;18.20;48.20
939;DHT22;456;53.584;9.968;2022-08-11T14:58:08;18.20;48.30
939;DHT22;456;53.584;9.968;2022-08-11T15:00:34;18.20;48.30
939;DHT22;456;53.584;9.968;2022-08-11T15:03:03;18.20;48.30
939;DHT22;456;53.584;9.968;2022-08-11T15:05:36;18.20;48.30
939;DHT22;456;53.584;9.968;2022-08-11T15:08:04;18.20;48.40
939;DHT22;456;53.584;9.968;2022-08-11T15:10:31;18.20;48.40
939;DHT22;456;53.584;9.968;2022-08-11T15:12:57;18.20;48.40
939;DHT22;456;53.584;9.968;2022-08-11T15:15:25;18.20;48.40
939;DHT22;456;53.584;9.968;2022-08-11T15:18:11;18.20;48.50
939;DHT22;456;53.584;9.968;2022-08-11T15:20:37;18.20;49.00
939;DHT22;456;53.584;9.968;2022-08-11T15:23:21;18.20;48.40
939;DHT22;456;53.584;9.968;2022-08-11T15:26:18;18.20;48.50
939;DHT22;456;53.584;9.968;2022-08-11T15:29:05;18.20;48.50
939;DHT22;456;53.584;9.968;2022-08-11T15:31:50;18.20;48.40
939;DHT22;456;53.584;9.968;2022-08-11T15:34:34;18.20;48.50
939;DHT22;456;53.584;9.968;2022-08-11T15:37:19;18.20;48.50
939;DHT22;456;53.584;9.968;2022-08-11T15:39:55;18.20;48.50
939;DHT22;456;53.584;9.968;2022-08-11T15:42:57;18.20;48.70
939;DHT22;456;53.584;9.968;2022-08-11T15:45:44;18.20;48.70
939;DHT22;456;53.584;9.968;2022-08-11T15:48:21;18.20;48.70
939;DHT22;456;53.584;9.968;2022-08-11T15:50:53;18.20;48.70
939;DHT22;456;53.584;9.968;2022-08-11T15:53:28;18.20;48.70
939;DHT22;456;53.584;9.968;2022-08-11T15:55:55;18.20;48.80
939;DHT22;456;53.584;9.968;2022-08-11T15:58:25;18.20;48.80
939;DHT22;456;53.584;9.968;2022-08-11T16:01:11;18.20;48.70
939;DHT22;456;53.584;9.968;2022-08-11T16:04:03;18.20;48.90
939;DHT22;456;53.584;9.968;2022-08-11T16:06:39;18.20;48.80
939;DHT22;456;53.584;9.968;2022-08-11T16:09:06;18.20;48.80
939;DHT22;456;53.584;9.968;2022-08-11T16:11:33;18.20;48.70
939;DHT22;456;53.584;9.968;2022-08-11T16:14:03;18.20;48.80
939;DHT22;456;53.584;9.968;2022-08-11T16:16:49;18.20;48.90
939;DHT22;456;53.584;9.968;2022-08-11T16:19:18;18.20;48.90
939;DHT22;456;53.584;9.968;2022-08-11T16:21:44;18.20;48.90
939;DHT22;456;53.584;9.968;2022-08-11T16:24:15;18.20;49.00
939;DHT22;456;53.584;9.968;2022-08-11T16:26:42;18.20;48.90
939;DHT22;456;53.584;9.968;2022-08-11T16:29:09;18.20;49.00
939;DHT22;456;53.584;9.968;2022-08-11T16:31:36;18.20;49.00
939;DHT22;456;53.584;9.968;2022-08-11T16:34:03;18.20;48.90
939;DHT22;456;53.584;9.968;2022-08-11T16:36:30;18.20;49.70
939;DHT22;456;53.584;9.968;2022-08-11T16:39:16;18.20;49.10
939;DHT22;456;53.584;9.968;2022-08-11T16:41:44;18.20;49.70
939;DHT22;456;53.584;9.968;2022-08-11T16:44:28;18.20;49.70
939;DHT22;456;53.584;9.968;2022-08-11T16:47:16;18.20;49.10
939;DHT22;456;53.584;9.968;2022-08-11T16:49:53;18.20;49.10
939;DHT22;456;53.584;9.968;2022-08-11T16:52:20;18.20;49.20
939;DHT22;456;53.584;9.968;2022-08-11T16:54:47;18.20;49.10
939;DHT22;456;53.584;9.968;2022-08-11T16:57:25;18.20;49.10
939;DHT22;456;53.584;9.968;2022-08-11T17:00:13;18.20;49.20
939;DHT22;456;53.584;9.968;2022-08-11T17:02:50;18.20;49.20
939;DHT22;456;53.584;9.968;2022-08-11T17:05:41;18.20;49.20
939;DHT22;456;53.584;9.968;2022-08-11T17:08:49;18.20;49.20
939;DHT22;456;53.584;9.968;2022-08-11T17:11:41;18.20;49.20
939;DHT22;456;53.584;9.968;2022-08-11T17:14:34;18.20;49.90
939;DHT22;456;53.584;9.968;2022-08-11T17:17:05;18.20;49.30
939;DHT22;456;53.584;9.968;2022-08-11T17:19:33;18.20;49.30
939;DHT22;456;53.584;9.968;2022-08-11T17:22:01;18.20;49.30
939;DHT22;456;53.584;9.968;2022-08-11T17:24:47;18.20;49.30
939;DHT22;456;53.584;9.968;2022-08-11T17:27:17;18.20;49.20
939;DHT22;456;53.584;9.968;2022-08-11T17:29:49;18.20;49.30
939;DHT22;456;53.584;9.968;2022-08-11T17:35:12;18.20;49.30
939;DHT22;456;53.584;9.968;2022-08-11T17:40:34;18.20;49.30
939;DHT22;456;53.584;9.968;2022-08-11T17:43:05;18.20;49.30
939;DHT22;456;53.584;9.968;2022-08-11T17:45:50;18.20;49.30
939;DHT22;456;53.584;9.968;2022-08-11T17:48:41;18.20;49.40
939;DHT22;456;53.584;9.968;2022-08-11T17:51:11;18.20;49.40
939;DHT22;456;53.584;9.968;2022-08-11T17:53:58;18.20;49.20
939;DHT22;456;53.584;9.968;2022-08-11T17:56:43;18.20;49.40
939;DHT22;456;53.584;9.968;2022-08-11T17:59:28;18.20;49.40
939;DHT22;456;53.584;9.968;2022-08-11T18:02:12;18.20;49.40
939;DHT22;456;53.584;9.968;2022-08-11T18:04:58;18.20;49.30
939;DHT22;456;53.584;9.968;2022-08-11T18:07:24;18.20;49.40
939;DHT22;456;53.584;9.968;2022-08-11T18:10:09;18.20;49.40
939;DHT22;456;53.584;9.968;2022-08-11T18:12:54;18.20;49.40
939;DHT22;456;53.584;9.968;2022-08-11T18:15:42;18.20;49.30
939;DHT22;456;53.584;9.968;2022-08-11T18:18:27;18.20;49.40
939;DHT22;456;53.584;9.968;2022-08-11T18:21:14;18.20;49.30
939;DHT22;456;53.584;9.968;2022-08-11T18:24:04;18.20;49.40
939;DHT22;456;53.584;9.968;2022-08-11T18:26:50;18.20;49.30
939;DHT22;456;53.584;9.968;2022-08-11T18:29:39;18.20;49.40
939;DHT22;456;53.584;9.968;2022-08-11T18:32:26;18.20;49.40
939;DHT22;456;53.584;9.968;2022-08-11T18:35:12;18.20;49.50
939;DHT22;456;53.584;9.968;2022-08-11T18:37:58;18.20;49.50
939;DHT22;456;53.584;9.968;2022-08-11T18:40:44;18.20;49.40
939;DHT22;456;53.584;9.968;2022-08-11T18:43:31;18.20;49.30
939;DHT22;456;53.584;9.968;2022-08-11T18:46:18;18.20;49.60
939;DHT22;456;53.584;9.968;2022-08-11T18:49:25;18.20;49.60
939;DHT22;456;53.584;9.968;2022-08-11T18:52:11;18.20;49.40
939;DHT22;456;53.584;9.968;2022-08-11T18:54:59;18.20;49.50
939;DHT22;456;53.584;9.968;2022-08-11T18:57:47;18.20;49.40
939;DHT22;456;53.584;9.968;2022-08-11T19:00:33;18.20;49.40
939;DHT22;456;53.584;9.968;2022-08-11T19:03:20;18.20;49.50
939;DHT22;456;53.584;9.968;2022-08-11T19:06:06;18.20;49.50
939;DHT22;456;53.584;9.968;2022-08-11T19:08:56;18.20;49.50
939;DHT22;456;53.584;9.968;2022-08-11T19:11:41;18.20;49.60
939;DHT22;456;53.584;9.968;2022-08-11T19:14:28;18.20;49.70
939;DHT22;456;53.584;9.968;2022-08-11T19:17:14;18.20;49.60
939;DHT22;456;53.584;9.968;2022-08-11T19:20:02;18.20;49.70
939;DHT22;456;53.584;9.968;2022-08-11T19:22:48;18.20;49.70
939;DHT22;456;53.584;9.968;2022-08-11T19:25:33;18.20;49.70
939;DHT22;456;53.584;9.968;2022-08-11T19:28:19;18.20;49.80
939;DHT22;456;53.584;9.968;2022-08-11T19:31:05;18.20;49.70
939;DHT22;456;53.584;9.968;2022-08-11T19:33:51;18.20;49.70
939;DHT22;456;53.584;9.968;2022-08-11T19:36:37;18.20;49.70
939;DHT22;456;53.584;9.968;2022-08-11T19:39:21;18.20;49.80
939;DHT22;456;53.584;9.968;2022-08-11T19:42:08;18.20;49.60
939;DHT22;456;53.584;9.968;2022-08-11T19:44:54;18.20;49.70
939;DHT22;456;53.584;9.968;2022-08-11T19:47:40;18.20;49.60
939;DHT22;456;53.584;9.968;2022-08-11T19:50:25;18.20;49.70
939;DHT22;456;53.584;9.968;2022-08-11T19:53:10;18.20;49.80
939;DHT22;456;53.584;9.968;2022-08-11T19:55:54;18.20;49.70
939;DHT22;456;53.584;9.968;2022-08-11T19:58:39;18.20;49.70
939;DHT22;456;53.584;9.968;2022-08-11T20:01:24;18.20;49.70
939;DHT22;456;53.584;9.968;2022-08-11T20:04:08;18.20;49.70
939;DHT22;456;53.584;9.968;2022-08-11T20:06:54;18.20;49.90
939;DHT22;456;53.584;9.968;2022-08-11T20:09:42;18.20;49.80
939;DHT22;456;53.584;9.968;2022-08-11T20:12:27;18.20;49.60
939;DHT22;456;53.584;9.968;2022-08-11T20:15:13;18.20;49.70
939;DHT22;456;53.584;9.968;2022-08-11T20:17:59;18.10;49.60
939;DHT22;456;53.584;9.968;2022-08-11T20:20:50;18.20;49.70
939;DHT22;456;53.584;9.968;2022-08-11T20:23:38;18.20;49.80
939;DHT22;456;53.584;9.968;2022-08-11T20:26:24;18.10;49.70
939;DHT22;456;53.584;9.968;2022-08-11T20:29:08;18.20;49.60
939;DHT22;456;53.584;9.968;2022-08-11T20:31:53;18.20;49.70
939;DHT22;456;53.584;9.968;2022-08-11T20:34:39;18.20;49.60
939;DHT22;456;53.584;9.968;2022-08-11T20:37:25;18.20;49.80
939;DHT22;456;53.584;9.968;2022-08-11T20:40:11;18.10;49.80
939;DHT22;456;53.584;9.968;2022-08-11T20:42:58;18.20;49.80
939;DHT22;456;53.584;9.968;2022-08-11T20:45:43;18.20;49.90
939;DHT22;456;53.584;9.968;2022-08-11T20:48:29;18.20;49.80